createdAt,value
2019-06-15T00:00:12.586Z,7.77
2019-06-15T00:02:41.013Z,7.90
2019-06-15T00:05:09.646Z,6.10
2019-06-15T00:07:38.059Z,10.30
2019-06-15T00:10:07.421Z,6.60
2019-06-15T00:12:35.823Z,9.53
2019-06-15T00:15:06.000Z,6.77
2019-06-15T00:17:34.420Z,6.67
2019-06-15T00:20:03.375Z,7.77
2019-06-15T00:22:31.843Z,8.00
2019-06-15T00:25:00.251Z,9.77
2019-06-15T00:27:28.899Z,7.20
2019-06-15T00:29:57.304Z,9.60
2019-06-15T00:32:25.728Z,8.93
2019-06-15T00:34:54.395Z,14.93
2019-06-15T00:37:22.899Z,7.90
2019-06-15T00:39:51.304Z,7.37
2019-06-15T00:42:19.710Z,10.03
2019-06-15T00:44:48.118Z,9.00
2019-06-15T00:47:16.522Z,10.53
2019-06-15T00:49:44.940Z,8.97
2019-06-15T00:52:13.322Z,9.80
2019-06-15T00:54:50.004Z,8.50
2019-06-15T00:57:11.935Z,8.73
2019-06-15T00:59:40.339Z,8.57
2019-06-15T01:02:08.751Z,10.80
2019-06-15T01:04:37.172Z,10.93
2019-06-15T01:07:05.570Z,8.80
2019-06-15T01:09:33.974Z,8.53
2019-06-15T01:12:02.431Z,8.87
2019-06-15T01:14:30.831Z,8.93
2019-06-15T01:16:59.255Z,8.27
2019-06-15T01:19:27.735Z,8.90
2019-06-15T01:21:56.135Z,8.17
2019-06-15T01:24:24.659Z,9.17
2019-06-15T01:26:53.080Z,11.67
2019-06-15T01:29:21.479Z,10.73
2019-06-15T01:31:49.929Z,8.87
2019-06-15T01:34:18.427Z,12.40
2019-06-15T01:36:46.831Z,9.40
2019-06-15T01:39:15.236Z,11.50
2019-06-15T01:41:43.652Z,11.07
2019-06-15T01:44:12.050Z,13.00
2019-06-15T01:46:40.457Z,10.50
2019-06-15T01:49:08.870Z,11.30
2019-06-15T01:51:37.276Z,10.63
2019-06-15T01:54:05.775Z,12.93
2019-06-15T01:56:34.291Z,11.57
2019-06-15T01:59:02.695Z,11.50
2019-06-15T02:01:31.123Z,11.07
2019-06-15T02:03:59.559Z,11.93
2019-06-15T02:06:27.982Z,12.50
2019-06-15T02:08:56.394Z,12.07
2019-06-15T02:11:24.817Z,12.30
2019-06-15T02:13:53.222Z,11.53
2019-06-15T02:16:21.801Z,12.30
2019-06-15T02:18:50.234Z,12.13
2019-06-15T02:21:18.651Z,12.30
2019-06-15T02:23:47.055Z,12.30
2019-06-15T02:26:15.498Z,12.53
2019-06-15T02:28:43.907Z,12.23
2019-06-15T02:31:12.311Z,11.67
2019-06-15T02:33:40.728Z,14.03
2019-06-15T02:36:09.135Z,14.03
2019-06-15T02:38:40.219Z,11.00
2019-06-15T02:41:08.877Z,13.73
2019-06-15T02:43:37.289Z,13.43
2019-06-15T02:46:05.766Z,14.30
2019-06-15T02:48:34.189Z,15.47
2019-06-15T02:51:02.715Z,12.93
2019-06-15T02:53:31.196Z,13.30
2019-06-15T02:55:59.615Z,13.00
2019-06-15T02:58:28.043Z,13.23
2019-06-15T03:01:07.495Z,13.73
2019-06-15T03:03:37.961Z,13.90
2019-06-15T03:06:06.769Z,13.70
2019-06-15T03:08:35.538Z,15.80
2019-06-15T03:11:05.123Z,13.70
2019-06-15T03:13:35.529Z,14.03
2019-06-15T03:16:05.274Z,13.27
2019-06-15T03:18:33.858Z,13.00
2019-06-15T03:21:02.443Z,13.77
2019-06-15T03:23:30.907Z,14.80
2019-06-15T03:26:05.501Z,15.20
2019-06-15T03:28:29.487Z,16.43
2019-06-15T03:30:58.465Z,12.70
2019-06-15T03:33:27.052Z,15.83
2019-06-15T03:35:55.477Z,14.37
2019-06-15T03:38:23.884Z,13.57
2019-06-15T03:40:52.288Z,14.80
2019-06-15T03:43:20.723Z,15.60
2019-06-15T03:45:49.128Z,16.10
2019-06-15T03:48:17.545Z,13.67
2019-06-15T03:50:45.966Z,15.27
2019-06-15T03:53:14.402Z,16.20
2019-06-15T03:55:42.806Z,13.57
2019-06-15T03:58:11.475Z,15.27
2019-06-15T04:00:51.295Z,13.97
2019-06-15T04:03:19.723Z,15.60
2019-06-15T04:05:48.119Z,14.17
2019-06-15T04:08:16.547Z,14.13
2019-06-15T04:10:45.062Z,14.33
2019-06-15T04:13:13.471Z,15.50
2019-06-15T04:15:41.884Z,18.43
2019-06-15T04:18:10.298Z,15.03
2019-06-15T04:20:38.728Z,14.97
2019-06-15T04:23:07.123Z,16.93
2019-06-15T04:25:35.554Z,16.27
2019-06-15T04:28:04.035Z,16.43
2019-06-15T04:30:32.440Z,15.10
2019-06-15T04:33:00.871Z,15.93
2019-06-15T04:35:29.275Z,17.77
2019-06-15T04:37:57.680Z,15.97
2019-06-15T04:40:26.097Z,18.40
2019-06-15T04:42:54.502Z,18.77
2019-06-15T04:45:22.911Z,17.47
2019-06-15T04:47:51.335Z,17.50
2019-06-15T04:50:19.740Z,17.13
2019-06-15T04:52:48.147Z,17.87
2019-06-15T04:55:16.743Z,20.57
2019-06-15T04:57:45.180Z,19.20
2019-06-15T05:00:13.955Z,17.87
2019-06-15T05:02:42.366Z,18.50
2019-06-15T05:05:11.114Z,18.30
2019-06-15T05:07:39.523Z,20.10
2019-06-15T05:10:08.488Z,18.97
2019-06-15T05:12:36.897Z,19.63
2019-06-15T05:15:09.487Z,19.77
2019-06-15T05:17:37.910Z,18.63
2019-06-15T05:20:06.954Z,19.07
2019-06-15T05:22:35.382Z,18.67
2019-06-15T05:25:05.707Z,22.13
2019-06-15T05:27:34.414Z,19.57
2019-06-15T05:30:03.799Z,19.60
2019-06-15T05:32:32.222Z,22.83
2019-06-15T05:35:00.622Z,21.33
2019-06-15T05:37:29.061Z,24.07
2019-06-15T05:39:57.613Z,19.93
2019-06-15T05:42:26.020Z,19.27
2019-06-15T05:44:54.427Z,17.60
2019-06-15T05:47:23.079Z,19.20
2019-06-15T05:49:51.488Z,19.63
2019-06-15T05:52:19.908Z,19.27
2019-06-15T05:54:48.374Z,18.53
2019-06-15T05:57:21.637Z,17.13
2019-06-15T05:59:46.903Z,17.43
2019-06-15T06:02:15.319Z,16.10
2019-06-15T06:04:43.735Z,15.73
2019-06-15T06:07:12.147Z,16.97
2019-06-15T06:09:40.558Z,16.20
2019-06-15T06:12:09.042Z,14.93
2019-06-15T06:14:37.703Z,14.03
2019-06-15T06:17:06.122Z,12.97
2019-06-15T06:19:34.525Z,13.77
2019-06-15T06:22:02.975Z,12.80
2019-06-15T06:24:31.411Z,13.10
2019-06-15T06:26:59.843Z,11.77
2019-06-15T06:29:28.264Z,11.43
2019-06-15T06:31:56.671Z,12.60
2019-06-15T06:34:25.580Z,11.77
2019-06-15T06:36:54.006Z,10.97
2019-06-15T06:39:22.415Z,11.57
2019-06-15T06:41:50.819Z,9.90
2019-06-15T06:44:19.272Z,11.53
2019-06-15T06:46:47.679Z,13.57
2019-06-15T06:49:16.163Z,10.03
2019-06-15T06:51:44.583Z,12.27
2019-06-15T06:54:13.072Z,10.07
2019-06-15T06:56:41.487Z,9.83
2019-06-15T06:59:09.982Z,13.43
2019-06-15T07:01:38.763Z,10.20
2019-06-15T07:04:07.174Z,10.67
2019-06-15T07:06:35.580Z,11.53
2019-06-15T07:09:04.795Z,12.63
2019-06-15T07:11:33.197Z,15.10
2019-06-15T07:14:01.606Z,13.80
2019-06-15T07:16:30.013Z,14.10
2019-06-15T07:18:58.445Z,15.50
2019-06-15T07:21:26.859Z,15.90
2019-06-15T07:23:55.266Z,13.67
2019-06-15T07:26:23.691Z,15.63
2019-06-15T07:28:52.095Z,16.93
2019-06-15T07:31:20.518Z,17.10
2019-06-15T07:33:48.943Z,18.10
2019-06-15T07:36:17.339Z,18.47
2019-06-15T07:38:45.749Z,19.30
2019-06-15T07:41:14.195Z,20.70
2019-06-15T07:43:42.615Z,22.23
2019-06-15T07:46:11.021Z,34.67
2019-06-15T07:48:39.687Z,36.13
2019-06-15T07:51:08.096Z,37.37
2019-06-15T07:53:36.498Z,38.43
2019-06-15T07:56:04.994Z,43.50
2019-06-15T07:58:33.548Z,44.87
2019-06-15T08:01:02.058Z,46.43
2019-06-15T08:03:30.813Z,50.67
2019-06-15T08:05:59.223Z,44.63
2019-06-15T08:08:27.626Z,46.87
2019-06-15T08:10:56.069Z,43.27
2019-06-15T08:13:24.476Z,40.57
2019-06-15T08:15:52.887Z,40.20
2019-06-15T08:18:21.312Z,37.03
2019-06-15T08:20:49.729Z,36.97
2019-06-15T08:23:18.135Z,31.87
2019-06-15T08:25:46.548Z,29.43
2019-06-15T08:28:14.982Z,29.57
2019-06-15T08:30:44.561Z,27.30
2019-06-15T08:33:13.322Z,26.03
2019-06-15T08:35:41.752Z,26.20
2019-06-15T08:38:10.215Z,25.63
2019-06-15T08:40:38.678Z,23.50
2019-06-15T08:43:07.157Z,24.97
2019-06-15T08:45:35.559Z,22.80
2019-06-15T08:48:04.446Z,21.77
2019-06-15T08:50:32.855Z,20.77
2019-06-15T08:53:01.269Z,18.33
2019-06-15T08:55:29.787Z,18.73
2019-06-15T08:57:58.182Z,19.32
2019-06-15T09:00:26.786Z,19.30
2019-06-15T09:02:55.199Z,18.30
2019-06-15T09:05:23.611Z,19.15
2019-06-15T09:07:52.027Z,18.07
2019-06-15T09:10:20.515Z,16.42
2019-06-15T09:12:48.931Z,15.60
2019-06-15T09:15:23.124Z,14.25
2019-06-15T09:17:51.588Z,12.90
2019-06-15T09:20:20.010Z,12.50
2019-06-15T09:22:48.418Z,11.00
2019-06-15T09:25:16.827Z,11.43
2019-06-15T09:27:45.240Z,8.77
2019-06-15T09:30:13.870Z,11.05
2019-06-15T09:32:42.374Z,9.03
2019-06-15T09:35:11.007Z,8.53
2019-06-15T09:37:39.066Z,5.45
2019-06-15T09:40:08.715Z,6.70
2019-06-15T09:42:37.138Z,6.37
2019-06-15T09:45:07.238Z,7.83
2019-06-15T09:47:35.639Z,9.35
2019-06-15T09:50:05.686Z,6.17
2019-06-15T09:52:34.103Z,5.78
2019-06-15T09:55:02.582Z,4.00
2019-06-15T09:57:31.295Z,6.90
2019-06-15T09:59:59.691Z,6.47
2019-06-15T10:02:28.106Z,4.12
2019-06-15T10:04:56.848Z,5.63
2019-06-15T10:07:25.250Z,6.30
2019-06-15T10:09:53.663Z,6.10
2019-06-15T10:12:22.064Z,5.40
2019-06-15T10:14:50.491Z,4.63
2019-06-15T10:17:18.918Z,4.57
2019-06-15T10:19:47.339Z,4.27
2019-06-15T10:22:15.410Z,3.87
2019-06-15T10:24:43.819Z,5.13
2019-06-15T10:27:12.219Z,3.50
2019-06-15T10:29:42.308Z,2.70
2019-06-15T10:32:10.768Z,3.23
2019-06-15T10:34:39.171Z,3.57
2019-06-15T10:37:07.354Z,2.87
2019-06-15T10:39:36.063Z,3.67
2019-06-15T10:42:04.531Z,2.20
2019-06-15T10:44:33.374Z,2.53
2019-06-15T10:47:02.015Z,5.20
2019-06-15T10:49:30.426Z,3.77
2019-06-15T10:51:58.846Z,3.13
2019-06-15T10:54:27.240Z,2.27
2019-06-15T10:56:55.649Z,2.47
2019-06-15T10:59:24.066Z,2.43
2019-06-15T11:01:52.474Z,2.40
2019-06-15T11:04:20.879Z,2.90
2019-06-15T11:06:49.311Z,3.63
2019-06-15T11:09:17.710Z,3.77
2019-06-15T11:11:46.112Z,2.87
2019-06-15T11:14:14.871Z,2.80
2019-06-15T11:16:43.301Z,2.97
2019-06-15T11:19:11.691Z,3.53
2019-06-15T11:21:40.362Z,3.80
2019-06-15T11:24:08.767Z,3.23
2019-06-15T11:26:37.179Z,3.57
2019-06-15T11:29:05.601Z,4.63
2019-06-15T11:31:34.001Z,4.70
2019-06-15T11:34:02.394Z,5.30
2019-06-15T11:36:30.814Z,4.80
2019-06-15T11:38:59.210Z,5.17
2019-06-15T11:41:27.614Z,5.15
2019-06-15T11:43:56.028Z,5.97
2019-06-15T11:46:24.423Z,5.80
2019-06-15T11:48:52.850Z,5.23
2019-06-15T11:51:21.299Z,6.17
2019-06-15T11:53:49.686Z,5.60
2019-06-15T11:56:18.087Z,7.47
2019-06-15T11:58:46.511Z,4.90
2019-06-15T12:01:14.984Z,4.75
2019-06-15T12:03:43.384Z,4.22
2019-06-15T12:06:11.803Z,4.97
2019-06-15T12:08:40.738Z,4.90
2019-06-15T12:11:09.147Z,5.12
2019-06-15T12:13:37.573Z,4.97
2019-06-15T12:16:06.047Z,5.55
2019-06-15T12:18:34.454Z,5.20
2019-06-15T12:21:02.881Z,7.97
2019-06-15T12:23:31.271Z,6.20
2019-06-15T12:25:59.676Z,4.07
2019-06-15T12:28:28.123Z,3.13
2019-06-15T12:30:56.528Z,2.67
2019-06-15T12:33:24.930Z,2.10
2019-06-15T12:35:53.349Z,3.37
2019-06-15T12:38:21.755Z,2.92
2019-06-15T12:40:50.161Z,2.12
2019-06-15T12:43:18.646Z,5.03
2019-06-15T12:45:47.049Z,1.45
2019-06-15T12:48:15.735Z,1.60
2019-06-15T12:50:44.517Z,1.45
2019-06-15T12:53:12.969Z,1.52
2019-06-15T12:55:41.435Z,1.40
2019-06-15T12:58:09.860Z,2.55
2019-06-15T13:00:38.998Z,1.00
2019-06-15T13:03:07.411Z,1.98
2019-06-15T13:05:35.819Z,3.12
2019-06-15T13:08:04.406Z,1.22
2019-06-15T13:10:32.807Z,1.30
2019-06-15T13:13:01.229Z,1.22
2019-06-15T13:15:29.636Z,4.20
2019-06-15T13:17:58.044Z,2.42
2019-06-15T13:20:28.058Z,1.87
2019-06-15T13:22:56.482Z,2.35
2019-06-15T13:25:25.150Z,2.33
2019-06-15T13:27:53.548Z,3.87
2019-06-15T13:30:22.530Z,1.47
2019-06-15T13:32:50.926Z,2.40
2019-06-15T13:35:19.542Z,2.33
2019-06-15T13:37:47.957Z,5.10
2019-06-15T13:40:17.005Z,3.13
2019-06-15T13:42:45.403Z,2.62
2019-06-15T13:45:15.686Z,4.40
2019-06-15T13:47:44.096Z,2.20
2019-06-15T13:50:12.631Z,3.30
2019-06-15T13:52:41.358Z,2.70
2019-06-15T13:55:10.295Z,1.92
2019-06-15T13:57:38.710Z,2.05
2019-06-15T14:00:08.053Z,4.05
2019-06-15T14:02:36.476Z,1.47
2019-06-15T14:05:06.678Z,2.35
2019-06-15T14:07:35.067Z,2.05
2019-06-15T14:10:07.291Z,4.42
2019-06-15T14:12:35.700Z,2.08
2019-06-15T14:15:06.920Z,1.92
2019-06-15T14:17:35.331Z,1.80
2019-06-15T14:20:05.268Z,1.95
2019-06-15T14:22:33.664Z,2.17
2019-06-15T14:25:02.095Z,1.98
2019-06-15T14:27:30.501Z,2.33
2019-06-15T14:29:58.943Z,2.22
2019-06-15T14:32:27.399Z,3.67
2019-06-15T14:34:55.799Z,3.25
2019-06-15T14:37:24.208Z,3.55
2019-06-15T14:39:52.643Z,4.62
2019-06-15T14:42:21.042Z,4.53
2019-06-15T14:44:49.442Z,2.27
2019-06-15T14:47:17.855Z,2.10
2019-06-15T14:49:46.328Z,2.40
2019-06-15T14:52:14.727Z,6.65
2019-06-15T14:54:43.132Z,3.02
2019-06-15T14:57:11.548Z,3.65
2019-06-15T14:59:53.349Z,2.10
2019-06-15T15:02:14.124Z,2.45
2019-06-15T15:04:40.239Z,2.60
2019-06-15T15:07:08.643Z,2.20
2019-06-15T15:09:37.046Z,2.77
2019-06-15T15:12:05.463Z,2.90
2019-06-15T15:14:36.388Z,8.43
2019-06-15T15:17:06.383Z,2.25
2019-06-15T15:19:36.059Z,2.12
2019-06-15T15:22:04.348Z,3.30
2019-06-15T15:24:32.750Z,2.25
2019-06-15T15:27:01.163Z,1.93
2019-06-15T15:29:29.569Z,3.50
2019-06-15T15:31:58.064Z,2.22
2019-06-15T15:34:26.496Z,3.02
2019-06-15T15:36:56.758Z,2.33
2019-06-15T15:39:27.326Z,2.27
2019-06-15T15:41:56.271Z,2.20
2019-06-15T15:44:26.941Z,2.00
2019-06-15T15:46:56.932Z,2.12
2019-06-15T15:49:26.819Z,4.22
2019-06-15T15:51:56.596Z,2.33
2019-06-15T15:54:25.135Z,2.65
2019-06-15T15:56:55.812Z,2.05
2019-06-15T15:59:23.683Z,2.72
2019-06-15T16:01:52.101Z,2.92
2019-06-15T16:04:20.651Z,2.90
2019-06-15T16:06:49.827Z,4.78
2019-06-15T16:09:18.248Z,2.62
2019-06-15T16:11:46.706Z,3.05
2019-06-15T16:14:16.477Z,3.58
2019-06-15T16:16:46.784Z,3.60
2019-06-15T16:19:16.994Z,3.80
2019-06-15T16:21:47.094Z,2.80
2019-06-15T16:24:16.722Z,3.75
2019-06-15T16:26:46.736Z,5.50
2019-06-15T16:29:16.327Z,3.67
2019-06-15T16:31:46.095Z,3.02
2019-06-15T16:34:16.081Z,3.23
2019-06-15T16:36:46.997Z,6.67
2019-06-15T16:39:16.719Z,5.53
2019-06-15T16:41:46.993Z,6.50
2019-06-15T16:44:17.270Z,14.30
2019-06-15T16:46:45.268Z,3.40
2019-06-15T16:49:16.348Z,4.80
2019-06-15T16:51:46.459Z,6.17
2019-06-15T16:54:16.444Z,10.27
2019-06-15T16:56:46.421Z,6.17
2019-06-15T16:59:14.247Z,3.60
2019-06-15T17:01:42.656Z,3.50
2019-06-15T17:04:11.134Z,2.60
2019-06-15T17:06:40.839Z,3.65
2019-06-15T17:09:09.386Z,5.10
2019-06-15T17:11:37.866Z,12.87
2019-06-15T17:14:06.914Z,4.10
2019-06-15T17:16:36.865Z,7.50
2019-06-15T17:19:07.101Z,11.60
2019-06-15T17:21:37.284Z,17.05
2019-06-15T17:24:06.717Z,20.47
2019-06-15T17:26:36.519Z,136.97
2019-06-15T17:29:07.262Z,15.05
2019-06-15T17:31:37.410Z,8.20
2019-06-15T17:34:07.266Z,6.13
2019-06-15T17:36:36.834Z,49.87
2019-06-15T17:39:08.192Z,28.87
2019-06-15T17:41:36.783Z,13.45
2019-06-15T17:44:06.059Z,36.50
2019-06-15T17:46:34.667Z,20.92
2019-06-15T17:49:03.085Z,23.90
2019-06-15T17:51:31.568Z,13.37
2019-06-15T17:53:59.979Z,16.10
2019-06-15T17:56:28.745Z,29.80
2019-06-15T17:58:57.227Z,19.60
2019-06-15T18:01:26.558Z,30.73
2019-06-15T18:03:58.017Z,23.73
2019-06-15T18:06:26.765Z,19.60
2019-06-15T18:08:55.640Z,48.57
2019-06-15T18:11:26.119Z,7.93
2019-06-15T18:13:56.490Z,3.50
2019-06-15T18:16:28.014Z,4.43
2019-06-15T18:18:54.462Z,3.87
2019-06-15T18:21:22.908Z,2.93
2019-06-15T18:23:51.307Z,2.87
2019-06-15T18:26:19.707Z,2.70
2019-06-15T18:28:48.119Z,2.83
2019-06-15T18:31:16.522Z,6.37
2019-06-15T18:33:47.112Z,2.80
2019-06-15T18:36:17.240Z,2.93
2019-06-15T18:38:46.542Z,4.30
2019-06-15T18:41:17.007Z,2.80
2019-06-15T18:43:45.375Z,3.23
2019-06-15T18:46:13.795Z,3.23
2019-06-15T18:48:42.211Z,3.60
2019-06-15T18:51:10.639Z,7.60
2019-06-15T18:53:39.453Z,2.90
2019-06-15T18:56:07.986Z,3.20
2019-06-15T18:58:37.229Z,3.50
2019-06-15T19:01:06.906Z,4.83
2019-06-15T19:03:37.538Z,3.40
2019-06-15T19:06:06.537Z,3.70
2019-06-15T19:08:34.866Z,3.67
2019-06-15T19:11:03.279Z,3.27
2019-06-15T19:13:31.714Z,4.17
2019-06-15T19:16:00.438Z,3.70
2019-06-15T19:18:28.846Z,4.57
2019-06-15T19:20:57.357Z,3.73
2019-06-15T19:23:26.556Z,5.27
2019-06-15T19:25:57.321Z,4.93
2019-06-15T19:28:26.676Z,7.07
2019-06-15T19:30:56.043Z,5.77
2019-06-15T19:33:26.794Z,6.00
2019-06-15T19:35:56.977Z,5.00
2019-06-15T19:38:27.166Z,4.90
2019-06-15T19:40:56.507Z,4.97
2019-06-15T19:43:25.209Z,5.40
2019-06-15T19:45:56.263Z,5.03
2019-06-15T19:48:23.761Z,4.73
2019-06-15T19:50:52.159Z,6.00
2019-06-15T19:53:20.587Z,5.53
2019-06-15T19:55:49.074Z,5.23
2019-06-15T19:58:17.475Z,7.93
2019-06-15T20:00:46.865Z,6.40
2019-06-15T20:03:16.715Z,5.10
2019-06-15T20:05:46.184Z,5.77
2019-06-15T20:08:17.406Z,6.50
2019-06-15T20:10:47.295Z,5.80
2019-06-15T20:13:15.323Z,6.37
2019-06-15T20:15:46.674Z,5.50
2019-06-15T20:18:13.863Z,5.00
2019-06-15T20:20:42.297Z,5.17
2019-06-15T20:23:10.728Z,7.07
2019-06-15T20:25:39.130Z,6.80
2019-06-15T20:28:07.535Z,8.37
2019-06-15T20:30:37.026Z,6.33
2019-06-15T20:33:07.877Z,6.47
2019-06-15T20:35:36.186Z,6.03
2019-06-15T20:38:04.601Z,6.33
2019-06-15T20:40:33.324Z,7.67
2019-06-15T20:43:01.763Z,7.67
2019-06-15T20:45:31.573Z,7.83
2019-06-15T20:48:00.157Z,9.13
2019-06-15T20:50:28.722Z,9.90
2019-06-15T20:52:57.166Z,9.17
2019-06-15T20:55:26.619Z,7.97
2019-06-15T20:57:56.893Z,6.07
2019-06-15T21:00:26.445Z,5.33
2019-06-15T21:02:56.134Z,5.93
2019-06-15T21:05:36.987Z,6.20
2019-06-15T21:07:57.357Z,6.37
2019-06-15T21:10:26.305Z,9.60
2019-06-15T21:12:55.007Z,7.90
2019-06-15T21:15:26.494Z,7.30
2019-06-15T21:17:57.024Z,8.03
2019-06-15T21:20:26.765Z,8.90
2019-06-15T21:22:57.205Z,8.03
2019-06-15T21:25:26.626Z,7.30
2019-06-15T21:27:56.767Z,7.23
2019-06-15T21:30:27.074Z,7.07
2019-06-15T21:32:55.999Z,8.90
2019-06-15T21:35:26.798Z,11.63
2019-06-15T21:37:57.191Z,10.63
2019-06-15T21:40:27.299Z,14.20
2019-06-15T21:42:56.315Z,8.73
2019-06-15T21:45:24.911Z,8.87
2019-06-15T21:47:55.855Z,8.90
2019-06-15T21:50:26.675Z,8.90
2019-06-15T21:52:56.365Z,8.43
2019-06-15T21:55:26.731Z,10.23
2019-06-15T21:57:56.426Z,9.23
2019-06-15T22:00:36.808Z,10.13
2019-06-15T22:03:05.215Z,9.43
2019-06-15T22:05:33.768Z,9.17
2019-06-15T22:08:02.207Z,9.20
2019-06-15T22:10:30.734Z,8.90
2019-06-15T22:12:59.135Z,8.53
2019-06-15T22:15:27.551Z,10.10
2019-06-15T22:17:55.979Z,8.60
2019-06-15T22:20:26.330Z,7.77
2019-06-15T22:22:54.607Z,8.60
2019-06-15T22:25:23.011Z,7.40
2019-06-15T22:27:51.403Z,7.83
2019-06-15T22:30:20.517Z,9.10
2019-06-15T22:32:48.922Z,8.47
2019-06-15T22:35:17.460Z,8.00
2019-06-15T22:37:46.845Z,8.57
2019-06-15T22:40:16.576Z,9.10
2019-06-15T22:42:47.073Z,9.23
2019-06-15T22:45:17.208Z,8.90
2019-06-15T22:47:46.799Z,9.00
2019-06-15T22:50:16.198Z,10.23
2019-06-15T22:52:47.164Z,8.73
2019-06-15T22:55:16.703Z,9.57
2019-06-15T22:57:46.143Z,9.43
2019-06-15T23:00:17.083Z,9.10
2019-06-15T23:02:46.078Z,9.20
2019-06-15T23:05:17.146Z,9.00
2019-06-15T23:07:47.177Z,9.07
2019-06-15T23:10:16.678Z,10.70
2019-06-15T23:12:46.388Z,9.53
2019-06-15T23:15:17.431Z,8.17
2019-06-15T23:17:46.702Z,9.83
2019-06-15T23:20:17.095Z,8.70
2019-06-15T23:22:46.729Z,8.30
2019-06-15T23:25:16.820Z,8.60
2019-06-15T23:27:46.928Z,10.63
2019-06-15T23:30:16.188Z,8.50
2019-06-15T23:32:46.819Z,9.43
2019-06-15T23:35:16.802Z,10.23
2019-06-15T23:37:46.521Z,9.17
2019-06-15T23:40:18.922Z,9.00
2019-06-15T23:42:48.678Z,8.80
2019-06-15T23:45:18.829Z,8.63
2019-06-15T23:47:47.300Z,9.60
2019-06-15T23:50:17.662Z,11.03
2019-06-15T23:52:47.198Z,9.70
2019-06-15T23:55:17.063Z,11.10
2019-06-15T23:57:46.478Z,8.67
